sensor_id;sensor_type;location;lat;lon;timestamp;temperature;humidity
15707;DHT22;7953;54.302;10.128;2023-05-07T00:00:22;8.60;99.90
15707;DHT22;7953;54.302;10.128;2023-05-07T00:02:51;8.60;99.90
15707;DHT22;7953;54.302;10.128;2023-05-07T00:05:18;8.50;99.90
15707;DHT22;7953;54.302;10.128;2023-05-07T00:07:46;8.60;99.90
15707;DHT22;7953;54.302;10.128;2023-05-07T00:10:13;8.70;99.90
15707;DHT22;7953;54.302;10.128;2023-05-07T00:12:40;8.60;99.90
15707;DHT22;7953;54.302;10.128;2023-05-07T00:15:07;8.60;99.90
15707;DHT22;7953;54.302;10.128;2023-05-07T00:17:34;8.60;99.90
15707;DHT22;7953;54.302;10.128;2023-05-07T00:20:03;8.60;99.90
15707;DHT22;7953;54.302;10.128;2023-05-07T00:22:31;8.60;99.90
15707;DHT22;7953;54.302;10.128;2023-05-07T00:24:58;8.50;99.90
15707;DHT22;7953;54.302;10.128;2023-05-07T00:27:25;8.60;99.90
15707;DHT22;7953;54.302;10.128;2023-05-07T00:29:52;8.60;99.90
15707;DHT22;7953;54.302;10.128;2023-05-07T00:32:19;8.60;99.90
15707;DHT22;7953;54.302;10.128;2023-05-07T00:34:46;8.60;99.90
15707;DHT22;7953;54.302;10.128;2023-05-07T00:37:14;8.60;99.90
15707;DHT22;7953;54.302;10.128;2023-05-07T00:39:41;8.70;99.90
15707;DHT22;7953;54.302;10.128;2023-05-07T00:42:08;8.70;99.90
15707;DHT22;7953;54.302;10.128;2023-05-07T00:44:34;8.70;99.90
15707;DHT22;7953;54.302;10.128;2023-05-07T00:47:02;8.80;99.90
15707;DHT22;7953;54.302;10.128;2023-05-07T00:49:37;8.70;99.90
15707;DHT22;7953;54.302;10.128;2023-05-07T00:52:05;8.70;99.90
15707;DHT22;7953;54.302;10.128;2023-05-07T00:54:34;8.70;99.90
15707;DHT22;7953;54.302;10.128;2023-05-07T00:57:02;8.70;99.90
15707;DHT22;7953;54.302;10.128;2023-05-07T00:59:30;8.70;99.90
15707;DHT22;7953;54.302;10.128;2023-05-07T01:01:58;8.80;99.90
15707;DHT22;7953;54.302;10.128;2023-05-07T01:04:26;8.70;99.90
15707;DHT22;7953;54.302;10.128;2023-05-07T01:06:53;8.70;99.90
15707;DHT22;7953;54.302;10.128;2023-05-07T01:09:22;8.80;99.90
15707;DHT22;7953;54.302;10.128;2023-05-07T01:11:51;8.70;99.90
15707;DHT22;7953;54.302;10.128;2023-05-07T01:14:19;8.70;99.90
15707;DHT22;7953;54.302;10.128;2023-05-07T01:16:46;8.70;99.90
15707;DHT22;7953;54.302;10.128;2023-05-07T01:19:14;8.70;99.90
15707;DHT22;7953;54.302;10.128;2023-05-07T01:21:46;8.70;99.90
15707;DHT22;7953;54.302;10.128;2023-05-07T01:24:15;8.70;99.90
15707;DHT22;7953;54.302;10.128;2023-05-07T01:26:43;8.70;99.90
15707;DHT22;7953;54.302;10.128;2023-05-07T01:29:10;8.80;99.90
15707;DHT22;7953;54.302;10.128;2023-05-07T01:31:37;8.80;99.90
15707;DHT22;7953;54.302;10.128;2023-05-07T01:34:07;8.80;99.90
15707;DHT22;7953;54.302;10.128;2023-05-07T01:36:35;8.80;99.90
15707;DHT22;7953;54.302;10.128;2023-05-07T01:39:04;8.80;99.90
15707;DHT22;7953;54.302;10.128;2023-05-07T01:41:33;8.80;99.90
15707;DHT22;7953;54.302;10.128;2023-05-07T01:44:01;8.80;99.90
15707;DHT22;7953;54.302;10.128;2023-05-07T01:46:29;8.80;99.90
15707;DHT22;7953;54.302;10.128;2023-05-07T01:48:57;8.80;99.90
15707;DHT22;7953;54.302;10.128;2023-05-07T01:51:24;8.80;99.90
15707;DHT22;7953;54.302;10.128;2023-05-07T01:53:52;8.80;99.90
15707;DHT22;7953;54.302;10.128;2023-05-07T01:56:19;8.70;99.90
15707;DHT22;7953;54.302;10.128;2023-05-07T01:58:48;8.70;99.90
15707;DHT22;7953;54.302;10.128;2023-05-07T02:01:16;8.70;99.90
15707;DHT22;7953;54.302;10.128;2023-05-07T02:03:43;8.70;99.90
15707;DHT22;7953;54.302;10.128;2023-05-07T02:06:10;8.70;99.90
15707;DHT22;7953;54.302;10.128;2023-05-07T02:08:37;8.80;99.90
15707;DHT22;7953;54.302;10.128;2023-05-07T02:11:04;8.80;99.90
15707;DHT22;7953;54.302;10.128;2023-05-07T02:13:32;8.80;99.90
15707;DHT22;7953;54.302;10.128;2023-05-07T02:16:01;8.80;99.90
15707;DHT22;7953;54.302;10.128;2023-05-07T02:18:28;8.80;99.90
15707;DHT22;7953;54.302;10.128;2023-05-07T02:20:55;8.80;99.90
15707;DHT22;7953;54.302;10.128;2023-05-07T02:23:22;8.80;99.90
15707;DHT22;7953;54.302;10.128;2023-05-07T02:25:48;8.80;99.90
15707;DHT22;7953;54.302;10.128;2023-05-07T02:28:15;8.80;99.90
15707;DHT22;7953;54.302;10.128;2023-05-07T02:30:42;8.80;99.90
15707;DHT22;7953;54.302;10.128;2023-05-07T02:33:10;8.80;99.90
15707;DHT22;7953;54.302;10.128;2023-05-07T02:35:39;8.80;99.90
15707;DHT22;7953;54.302;10.128;2023-05-07T02:38:06;8.80;99.90
15707;DHT22;7953;54.302;10.128;2023-05-07T02:40:33;8.80;99.90
15707;DHT22;7953;54.302;10.128;2023-05-07T02:43:04;8.80;99.90
15707;DHT22;7953;54.302;10.128;2023-05-07T02:45:31;8.80;99.90
15707;DHT22;7953;54.302;10.128;2023-05-07T02:47:57;8.80;99.90
15707;DHT22;7953;54.302;10.128;2023-05-07T02:50:26;8.80;99.90
15707;DHT22;7953;54.302;10.128;2023-05-07T02:52:53;8.80;99.90
15707;DHT22;7953;54.302;10.128;2023-05-07T02:55:20;8.70;99.90
15707;DHT22;7953;54.302;10.128;2023-05-07T02:57:47;8.70;99.90
15707;DHT22;7953;54.302;10.128;2023-05-07T03:00:15;8.80;99.90
15707;DHT22;7953;54.302;10.128;2023-05-07T03:02:42;8.80;99.90
15707;DHT22;7953;54.302;10.128;2023-05-07T03:05:09;8.80;99.90
15707;DHT22;7953;54.302;10.128;2023-05-07T03:07:37;8.80;99.90
15707;DHT22;7953;54.302;10.128;2023-05-07T03:10:05;8.80;99.90
15707;DHT22;7953;54.302;10.128;2023-05-07T03:12:32;8.80;99.90
15707;DHT22;7953;54.302;10.128;2023-05-07T03:14:59;8.80;99.90
15707;DHT22;7953;54.302;10.128;2023-05-07T03:17:26;8.80;99.90
15707;DHT22;7953;54.302;10.128;2023-05-07T03:19:52;8.80;99.90
15707;DHT22;7953;54.302;10.128;2023-05-07T03:22:19;8.80;99.90
15707;DHT22;7953;54.302;10.128;2023-05-07T03:24:48;8.80;99.90
15707;DHT22;7953;54.302;10.128;2023-05-07T03:27:15;8.90;99.90
15707;DHT22;7953;54.302;10.128;2023-05-07T03:29:42;8.90;99.90
15707;DHT22;7953;54.302;10.128;2023-05-07T03:32:08;8.90;99.90
15707;DHT22;7953;54.302;10.128;2023-05-07T03:34:35;8.90;99.90
15707;DHT22;7953;54.302;10.128;2023-05-07T03:37:02;8.80;99.90
15707;DHT22;7953;54.302;10.128;2023-05-07T03:39:29;8.90;99.90
15707;DHT22;7953;54.302;10.128;2023-05-07T03:41:58;8.90;99.90
15707;DHT22;7953;54.302;10.128;2023-05-07T03:44:26;8.90;99.90
15707;DHT22;7953;54.302;10.128;2023-05-07T03:46:53;8.90;99.90
15707;DHT22;7953;54.302;10.128;2023-05-07T03:49:20;8.80;99.90
15707;DHT22;7953;54.302;10.128;2023-05-07T03:51:47;8.90;99.90
15707;DHT22;7953;54.302;10.128;2023-05-07T03:54:14;8.90;99.90
15707;DHT22;7953;54.302;10.128;2023-05-07T03:56:41;8.90;99.90
15707;DHT22;7953;54.302;10.128;2023-05-07T03:59:09;8.80;99.90
15707;DHT22;7953;54.302;10.128;2023-05-07T04:01:36;8.80;99.90
15707;DHT22;7953;54.302;10.128;2023-05-07T04:04:03;8.80;99.90
15707;DHT22;7953;54.302;10.128;2023-05-07T04:06:30;8.90;99.90
15707;DHT22;7953;54.302;10.128;2023-05-07T04:08:57;8.90;99.90
15707;DHT22;7953;54.302;10.128;2023-05-07T04:11:24;8.90;99.90
15707;DHT22;7953;54.302;10.128;2023-05-07T04:13:51;8.90;99.90
15707;DHT22;7953;54.302;10.128;2023-05-07T04:16:19;8.90;99.90
15707;DHT22;7953;54.302;10.128;2023-05-07T04:18:46;9.00;99.90
15707;DHT22;7953;54.302;10.128;2023-05-07T04:21:16;8.90;99.90
15707;DHT22;7953;54.302;10.128;2023-05-07T04:23:43;8.90;99.90
15707;DHT22;7953;54.302;10.128;2023-05-07T04:26:10;9.00;99.90
15707;DHT22;7953;54.302;10.128;2023-05-07T04:28:38;9.00;99.90
15707;DHT22;7953;54.302;10.128;2023-05-07T04:31:05;9.00;99.90
15707;DHT22;7953;54.302;10.128;2023-05-07T04:33:33;9.00;99.90
15707;DHT22;7953;54.302;10.128;2023-05-07T04:36:01;9.00;99.90
15707;DHT22;7953;54.302;10.128;2023-05-07T04:38:29;9.00;99.90
15707;DHT22;7953;54.302;10.128;2023-05-07T04:40:56;9.00;99.90
15707;DHT22;7953;54.302;10.128;2023-05-07T04:43:23;9.10;99.90
15707;DHT22;7953;54.302;10.128;2023-05-07T04:45:51;9.10;99.90
15707;DHT22;7953;54.302;10.128;2023-05-07T04:48:18;9.10;99.90
15707;DHT22;7953;54.302;10.128;2023-05-07T04:50:49;9.10;99.90
15707;DHT22;7953;54.302;10.128;2023-05-07T04:53:16;9.10;99.90
15707;DHT22;7953;54.302;10.128;2023-05-07T04:55:43;9.10;99.90
15707;DHT22;7953;54.302;10.128;2023-05-07T04:58:10;9.00;99.90
15707;DHT22;7953;54.302;10.128;2023-05-07T05:00:37;9.10;99.90
15707;DHT22;7953;54.302;10.128;2023-05-07T05:03:06;9.20;99.90
15707;DHT22;7953;54.302;10.128;2023-05-07T05:05:32;9.20;99.90
15707;DHT22;7953;54.302;10.128;2023-05-07T05:08:01;9.20;99.90
15707;DHT22;7953;54.302;10.128;2023-05-07T05:10:28;9.10;99.90
15707;DHT22;7953;54.302;10.128;2023-05-07T05:12:55;9.20;99.90
15707;DHT22;7953;54.302;10.128;2023-05-07T05:15:22;9.20;99.90
15707;DHT22;7953;54.302;10.128;2023-05-07T05:17:49;9.20;99.90
15707;DHT22;7953;54.302;10.128;2023-05-07T05:20:16;9.30;99.90
15707;DHT22;7953;54.302;10.128;2023-05-07T05:22:43;9.30;99.90
15707;DHT22;7953;54.302;10.128;2023-05-07T05:25:11;9.20;99.90
15707;DHT22;7953;54.302;10.128;2023-05-07T05:27:38;9.10;99.90
15707;DHT22;7953;54.302;10.128;2023-05-07T05:30:06;9.20;99.90
15707;DHT22;7953;54.302;10.128;2023-05-07T05:32:33;9.20;99.90
15707;DHT22;7953;54.302;10.128;2023-05-07T05:35:00;9.20;99.90
15707;DHT22;7953;54.302;10.128;2023-05-07T05:37:27;9.30;99.90
15707;DHT22;7953;54.302;10.128;2023-05-07T05:39:55;9.30;99.90
15707;DHT22;7953;54.302;10.128;2023-05-07T05:42:24;9.30;99.90
15707;DHT22;7953;54.302;10.128;2023-05-07T05:44:50;9.30;99.90
15707;DHT22;7953;54.302;10.128;2023-05-07T05:47:17;9.30;99.90
15707;DHT22;7953;54.302;10.128;2023-05-07T05:49:44;9.40;99.90
15707;DHT22;7953;54.302;10.128;2023-05-07T05:52:12;9.30;99.90
15707;DHT22;7953;54.302;10.128;2023-05-07T05:54:39;9.40;99.90
15707;DHT22;7953;54.302;10.128;2023-05-07T05:57:06;9.50;99.90
15707;DHT22;7953;54.302;10.128;2023-05-07T05:59:34;9.50;99.90
15707;DHT22;7953;54.302;10.128;2023-05-07T06:02:01;9.60;99.90
15707;DHT22;7953;54.302;10.128;2023-05-07T06:04:28;9.70;99.90
15707;DHT22;7953;54.302;10.128;2023-05-07T06:06:55;9.70;99.90
15707;DHT22;7953;54.302;10.128;2023-05-07T06:09:22;9.70;99.90
15707;DHT22;7953;54.302;10.128;2023-05-07T06:11:49;9.80;99.90
15707;DHT22;7953;54.302;10.128;2023-05-07T06:14:16;9.80;99.90
15707;DHT22;7953;54.302;10.128;2023-05-07T06:16:44;9.70;99.90
15707;DHT22;7953;54.302;10.128;2023-05-07T06:19:11;9.70;99.90
15707;DHT22;7953;54.302;10.128;2023-05-07T06:21:38;9.80;99.90
15707;DHT22;7953;54.302;10.128;2023-05-07T06:24:06;9.80;99.90
15707;DHT22;7953;54.302;10.128;2023-05-07T06:26:36;9.90;99.90
15707;DHT22;7953;54.302;10.128;2023-05-07T06:29:06;9.90;99.90
15707;DHT22;7953;54.302;10.128;2023-05-07T06:31:32;10.00;99.90
15707;DHT22;7953;54.302;10.128;2023-05-07T06:34:01;10.10;99.90
15707;DHT22;7953;54.302;10.128;2023-05-07T06:36:28;10.10;99.90
15707;DHT22;7953;54.302;10.128;2023-05-07T06:38:55;10.20;99.90
15707;DHT22;7953;54.302;10.128;2023-05-07T06:41:22;10.20;99.90
15707;DHT22;7953;54.302;10.128;2023-05-07T06:43:48;10.20;99.90
15707;DHT22;7953;54.302;10.128;2023-05-07T06:46:15;10.30;99.90
15707;DHT22;7953;54.302;10.128;2023-05-07T06:48:43;10.30;99.90
15707;DHT22;7953;54.302;10.128;2023-05-07T06:51:11;10.30;99.90
15707;DHT22;7953;54.302;10.128;2023-05-07T06:53:38;10.40;99.90
15707;DHT22;7953;54.302;10.128;2023-05-07T06:56:05;10.40;99.90
15707;DHT22;7953;54.302;10.128;2023-05-07T06:58:32;10.40;99.90
15707;DHT22;7953;54.302;10.128;2023-05-07T07:00:59;10.40;99.90
15707;DHT22;7953;54.302;10.128;2023-05-07T07:03:26;10.40;99.90
15707;DHT22;7953;54.302;10.128;2023-05-07T07:05:53;10.40;99.90
15707;DHT22;7953;54.302;10.128;2023-05-07T07:08:22;10.40;99.90
15707;DHT22;7953;54.302;10.128;2023-05-07T07:10:49;10.40;99.90
15707;DHT22;7953;54.302;10.128;2023-05-07T07:13:16;10.50;99.90
15707;DHT22;7953;54.302;10.128;2023-05-07T07:15:43;10.60;99.90
15707;DHT22;7953;54.302;10.128;2023-05-07T07:18:10;10.70;99.90
15707;DHT22;7953;54.302;10.128;2023-05-07T07:20:37;10.70;99.90
15707;DHT22;7953;54.302;10.128;2023-05-07T07:23:04;10.80;99.90
15707;DHT22;7953;54.302;10.128;2023-05-07T07:25:32;10.80;99.90
15707;DHT22;7953;54.302;10.128;2023-05-07T07:27:59;10.80;99.90
15707;DHT22;7953;54.302;10.128;2023-05-07T07:30:26;10.80;99.90
15707;DHT22;7953;54.302;10.128;2023-05-07T07:32:53;10.90;99.90
15707;DHT22;7953;54.302;10.128;2023-05-07T07:35:20;11.00;99.90
15707;DHT22;7953;54.302;10.128;2023-05-07T07:37:48;11.20;99.90
15707;DHT22;7953;54.302;10.128;2023-05-07T07:40:16;11.30;99.90
15707;DHT22;7953;54.302;10.128;2023-05-07T07:42:44;11.40;99.90
15707;DHT22;7953;54.302;10.128;2023-05-07T07:45:11;11.40;99.90
15707;DHT22;7953;54.302;10.128;2023-05-07T07:47:39;11.20;99.90
15707;DHT22;7953;54.302;10.128;2023-05-07T07:50:06;11.10;99.90
15707;DHT22;7953;54.302;10.128;2023-05-07T07:52:34;11.20;99.90
15707;DHT22;7953;54.302;10.128;2023-05-07T07:55:01;11.40;99.90
15707;DHT22;7953;54.302;10.128;2023-05-07T07:57:28;11.40;99.90
15707;DHT22;7953;54.302;10.128;2023-05-07T07:59:57;11.50;99.90
15707;DHT22;7953;54.302;10.128;2023-05-07T08:02:24;11.80;99.90
15707;DHT22;7953;54.302;10.128;2023-05-07T08:04:50;12.00;99.90
15707;DHT22;7953;54.302;10.128;2023-05-07T08:07:17;12.00;99.90
15707;DHT22;7953;54.302;10.128;2023-05-07T08:09:46;12.00;99.90
15707;DHT22;7953;54.302;10.128;2023-05-07T08:12:13;12.00;99.90
15707;DHT22;7953;54.302;10.128;2023-05-07T08:14:40;12.10;99.90
15707;DHT22;7953;54.302;10.128;2023-05-07T08:17:09;12.20;99.90
15707;DHT22;7953;54.302;10.128;2023-05-07T08:19:36;12.20;99.90
15707;DHT22;7953;54.302;10.128;2023-05-07T08:22:03;12.40;99.90
15707;DHT22;7953;54.302;10.128;2023-05-07T08:24:31;12.40;99.90
15707;DHT22;7953;54.302;10.128;2023-05-07T08:26:58;12.30;99.90
15707;DHT22;7953;54.302;10.128;2023-05-07T08:29:24;12.20;99.90
15707;DHT22;7953;54.302;10.128;2023-05-07T08:31:51;12.30;99.90
15707;DHT22;7953;54.302;10.128;2023-05-07T08:34:21;12.40;99.90
15707;DHT22;7953;54.302;10.128;2023-05-07T08:36:48;12.40;99.90
15707;DHT22;7953;54.302;10.128;2023-05-07T08:39:15;12.30;99.90
15707;DHT22;7953;54.302;10.128;2023-05-07T08:41:44;12.40;99.90
15707;DHT22;7953;54.302;10.128;2023-05-07T08:44:13;12.50;99.90
15707;DHT22;7953;54.302;10.128;2023-05-07T08:46:41;12.50;99.90
15707;DHT22;7953;54.302;10.128;2023-05-07T08:49:09;12.40;99.90
15707;DHT22;7953;54.302;10.128;2023-05-07T08:51:37;12.30;99.90
15707;DHT22;7953;54.302;10.128;2023-05-07T08:54:04;12.40;99.90
15707;DHT22;7953;54.302;10.128;2023-05-07T08:56:32;12.50;99.90
15707;DHT22;7953;54.302;10.128;2023-05-07T08:58:59;12.50;99.90
15707;DHT22;7953;54.302;10.128;2023-05-07T09:01:26;12.70;99.90
15707;DHT22;7953;54.302;10.128;2023-05-07T09:03:53;12.70;99.90
15707;DHT22;7953;54.302;10.128;2023-05-07T09:06:20;12.70;99.90
15707;DHT22;7953;54.302;10.128;2023-05-07T09:08:52;12.90;99.90
15707;DHT22;7953;54.302;10.128;2023-05-07T09:11:20;12.90;99.90
15707;DHT22;7953;54.302;10.128;2023-05-07T09:13:48;12.80;99.90
15707;DHT22;7953;54.302;10.128;2023-05-07T09:16:15;12.80;99.90
15707;DHT22;7953;54.302;10.128;2023-05-07T09:18:43;12.80;99.90
15707;DHT22;7953;54.302;10.128;2023-05-07T09:21:10;12.70;99.90
15707;DHT22;7953;54.302;10.128;2023-05-07T09:23:38;12.80;99.90
15707;DHT22;7953;54.302;10.128;2023-05-07T09:26:06;12.80;99.90
15707;DHT22;7953;54.302;10.128;2023-05-07T09:28:38;12.80;99.90
15707;DHT22;7953;54.302;10.128;2023-05-07T09:31:06;12.90;99.90
15707;DHT22;7953;54.302;10.128;2023-05-07T09:33:33;12.90;99.90
15707;DHT22;7953;54.302;10.128;2023-05-07T09:36:03;13.00;99.90
15707;DHT22;7953;54.302;10.128;2023-05-07T09:38:30;13.00;99.90
15707;DHT22;7953;54.302;10.128;2023-05-07T09:41:09;13.00;99.90
15707;DHT22;7953;54.302;10.128;2023-05-07T09:43:37;13.10;99.90
15707;DHT22;7953;54.302;10.128;2023-05-07T09:46:07;13.30;99.90
15707;DHT22;7953;54.302;10.128;2023-05-07T09:48:38;13.40;99.90
15707;DHT22;7953;54.302;10.128;2023-05-07T09:51:11;13.30;99.90
15707;DHT22;7953;54.302;10.128;2023-05-07T09:53:41;13.20;99.90
15707;DHT22;7953;54.302;10.128;2023-05-07T09:56:09;13.20;99.90
15707;DHT22;7953;54.302;10.128;2023-05-07T09:58:37;13.20;99.90
15707;DHT22;7953;54.302;10.128;2023-05-07T10:01:05;13.30;99.90
15707;DHT22;7953;54.302;10.128;2023-05-07T10:03:33;13.60;99.90
15707;DHT22;7953;54.302;10.128;2023-05-07T10:06:02;13.70;99.90
15707;DHT22;7953;54.302;10.128;2023-05-07T10:08:30;13.80;99.90
15707;DHT22;7953;54.302;10.128;2023-05-07T10:10:57;13.90;99.90
15707;DHT22;7953;54.302;10.128;2023-05-07T10:13:26;13.90;99.90
15707;DHT22;7953;54.302;10.128;2023-05-07T10:15:53;14.10;99.90
15707;DHT22;7953;54.302;10.128;2023-05-07T10:18:22;14.40;99.90
15707;DHT22;7953;54.302;10.128;2023-05-07T10:20:57;14.70;99.90
15707;DHT22;7953;54.302;10.128;2023-05-07T10:23:27;14.80;99.90
15707;DHT22;7953;54.302;10.128;2023-05-07T10:25:55;14.90;99.90
15707;DHT22;7953;54.302;10.128;2023-05-07T10:28:25;14.60;99.90
15707;DHT22;7953;54.302;10.128;2023-05-07T10:31:02;14.60;99.90
15707;DHT22;7953;54.302;10.128;2023-05-07T10:33:32;14.80;99.90
15707;DHT22;7953;54.302;10.128;2023-05-07T10:36:00;15.20;99.90
15707;DHT22;7953;54.302;10.128;2023-05-07T12:55:14;18.10;99.90
15707;DHT22;7953;54.302;10.128;2023-05-07T12:57:45;18.00;99.90
15707;DHT22;7953;54.302;10.128;2023-05-07T13:00:14;17.70;99.90
15707;DHT22;7953;54.302;10.128;2023-05-07T13:02:43;17.70;99.90
15707;DHT22;7953;54.302;10.128;2023-05-07T13:05:10;17.60;99.90
15707;DHT22;7953;54.302;10.128;2023-05-07T13:30:50;18.00;99.90
15707;DHT22;7953;54.302;10.128;2023-05-07T13:33:18;18.10;99.90
15707;DHT22;7953;54.302;10.128;2023-05-07T13:35:45;18.10;99.90
15707;DHT22;7953;54.302;10.128;2023-05-07T13:38:12;18.00;99.90
15707;DHT22;7953;54.302;10.128;2023-05-07T13:40:41;18.00;99.90
15707;DHT22;7953;54.302;10.128;2023-05-07T13:43:08;18.10;99.90
15707;DHT22;7953;54.302;10.128;2023-05-07T13:45:36;18.10;99.90
15707;DHT22;7953;54.302;10.128;2023-05-07T13:48:04;17.90;99.90
15707;DHT22;7953;54.302;10.128;2023-05-07T13:50:31;18.00;99.90
15707;DHT22;7953;54.302;10.128;2023-05-07T13:52:58;18.10;99.90
15707;DHT22;7953;54.302;10.128;2023-05-07T13:55:25;18.10;99.90
15707;DHT22;7953;54.302;10.128;2023-05-07T13:57:56;18.30;99.90
15707;DHT22;7953;54.302;10.128;2023-05-07T14:00:23;18.50;99.90
15707;DHT22;7953;54.302;10.128;2023-05-07T14:02:50;18.80;99.90
15707;DHT22;7953;54.302;10.128;2023-05-07T14:05:18;18.60;99.90
15707;DHT22;7953;54.302;10.128;2023-05-07T14:07:45;18.80;99.90
15707;DHT22;7953;54.302;10.128;2023-05-07T14:10:14;19.00;99.90
15707;DHT22;7953;54.302;10.128;2023-05-07T14:12:41;19.00;99.90
15707;DHT22;7953;54.302;10.128;2023-05-07T14:15:08;18.90;99.90
15707;DHT22;7953;54.302;10.128;2023-05-07T14:17:36;18.60;99.90
15707;DHT22;7953;54.302;10.128;2023-05-07T14:20:03;18.30;99.90
15707;DHT22;7953;54.302;10.128;2023-05-07T14:22:33;18.20;99.90
15707;DHT22;7953;54.302;10.128;2023-05-07T14:25:00;18.20;99.90
15707;DHT22;7953;54.302;10.128;2023-05-07T14:27:27;18.50;99.90
15707;DHT22;7953;54.302;10.128;2023-05-07T14:29:54;18.50;99.90
15707;DHT22;7953;54.302;10.128;2023-05-07T14:32:21;18.20;99.90
15707;DHT22;7953;54.302;10.128;2023-05-07T14:34:48;18.40;99.90
15707;DHT22;7953;54.302;10.128;2023-05-07T14:37:15;18.40;99.90
15707;DHT22;7953;54.302;10.128;2023-05-07T14:39:46;18.50;99.90
15707;DHT22;7953;54.302;10.128;2023-05-07T14:42:13;18.70;99.90
15707;DHT22;7953;54.302;10.128;2023-05-07T14:44:40;18.90;99.90
15707;DHT22;7953;54.302;10.128;2023-05-07T14:47:07;19.00;99.90
15707;DHT22;7953;54.302;10.128;2023-05-07T14:49:34;19.10;99.90
15707;DHT22;7953;54.302;10.128;2023-05-07T14:52:01;18.70;99.90
15707;DHT22;7953;54.302;10.128;2023-05-07T14:54:28;18.60;99.90
15707;DHT22;7953;54.302;10.128;2023-05-07T14:56:56;18.90;99.90
15707;DHT22;7953;54.302;10.128;2023-05-07T14:59:23;19.10;99.90
15707;DHT22;7953;54.302;10.128;2023-05-07T15:01:50;19.40;99.90
15707;DHT22;7953;54.302;10.128;2023-05-07T15:04:17;20.00;99.90
15707;DHT22;7953;54.302;10.128;2023-05-07T15:06:44;20.20;99.90
15707;DHT22;7953;54.302;10.128;2023-05-07T15:09:11;20.20;99.90
15707;DHT22;7953;54.302;10.128;2023-05-07T15:11:38;19.80;99.90
15707;DHT22;7953;54.302;10.128;2023-05-07T15:14:07;19.60;99.90
15707;DHT22;7953;54.302;10.128;2023-05-07T15:16:34;19.40;99.90
15707;DHT22;7953;54.302;10.128;2023-05-07T15:19:00;19.30;99.90
15707;DHT22;7953;54.302;10.128;2023-05-07T15:21:27;19.40;99.90
15707;DHT22;7953;54.302;10.128;2023-05-07T15:23:56;19.20;99.90
15707;DHT22;7953;54.302;10.128;2023-05-07T15:26:23;19.30;99.90
15707;DHT22;7953;54.302;10.128;2023-05-07T15:28:50;19.50;99.90
15707;DHT22;7953;54.302;10.128;2023-05-07T15:31:18;19.50;99.90
15707;DHT22;7953;54.302;10.128;2023-05-07T15:33:46;19.10;99.90
15707;DHT22;7953;54.302;10.128;2023-05-07T15:36:13;18.70;99.90
15707;DHT22;7953;54.302;10.128;2023-05-07T15:38:39;18.50;99.90
15707;DHT22;7953;54.302;10.128;2023-05-07T15:41:06;18.70;99.90
15707;DHT22;7953;54.302;10.128;2023-05-07T15:43:44;18.80;99.90
15707;DHT22;7953;54.302;10.128;2023-05-07T15:46:11;18.90;99.90
15707;DHT22;7953;54.302;10.128;2023-05-07T15:48:39;19.20;99.90
15707;DHT22;7953;54.302;10.128;2023-05-07T15:51:06;19.40;99.90
15707;DHT22;7953;54.302;10.128;2023-05-07T15:53:34;19.70;99.90
15707;DHT22;7953;54.302;10.128;2023-05-07T15:56:02;19.90;99.90
15707;DHT22;7953;54.302;10.128;2023-05-07T15:58:29;20.10;99.90
15707;DHT22;7953;54.302;10.128;2023-05-07T16:00:55;20.20;99.90
15707;DHT22;7953;54.302;10.128;2023-05-07T16:03:22;20.10;99.90
15707;DHT22;7953;54.302;10.128;2023-05-07T16:05:51;19.80;99.90
15707;DHT22;7953;54.302;10.128;2023-05-07T16:08:18;19.30;99.90
15707;DHT22;7953;54.302;10.128;2023-05-07T16:10:45;19.10;99.90
15707;DHT22;7953;54.302;10.128;2023-05-07T16:13:12;19.20;99.90
15707;DHT22;7953;54.302;10.128;2023-05-07T16:15:39;19.40;99.90
15707;DHT22;7953;54.302;10.128;2023-05-07T16:18:06;19.40;99.90
15707;DHT22;7953;54.302;10.128;2023-05-07T16:20:33;19.30;99.90
15707;DHT22;7953;54.302;10.128;2023-05-07T16:23:01;19.10;99.90
15707;DHT22;7953;54.302;10.128;2023-05-07T16:25:29;18.90;99.90
15707;DHT22;7953;54.302;10.128;2023-05-07T16:27:56;18.40;99.90
15707;DHT22;7953;54.302;10.128;2023-05-07T16:30:23;18.10;99.90
15707;DHT22;7953;54.302;10.128;2023-05-07T16:32:50;18.10;99.90
15707;DHT22;7953;54.302;10.128;2023-05-07T16:35:17;18.20;99.90
15707;DHT22;7953;54.302;10.128;2023-05-07T16:37:43;18.10;99.90
15707;DHT22;7953;54.302;10.128;2023-05-07T16:40:12;18.40;99.90
15707;DHT22;7953;54.302;10.128;2023-05-07T16:42:39;18.60;99.90
15707;DHT22;7953;54.302;10.128;2023-05-07T16:45:07;18.80;99.90
15707;DHT22;7953;54.302;10.128;2023-05-07T16:47:34;19.10;99.90
15707;DHT22;7953;54.302;10.128;2023-05-07T16:50:01;19.30;99.90
15707;DHT22;7953;54.302;10.128;2023-05-07T16:52:30;19.50;99.90
15707;DHT22;7953;54.302;10.128;2023-05-07T16:54:57;19.50;99.90
15707;DHT22;7953;54.302;10.128;2023-05-07T16:57:28;19.30;99.90
15707;DHT22;7953;54.302;10.128;2023-05-07T16:59:55;18.90;99.90
15707;DHT22;7953;54.302;10.128;2023-05-07T17:02:23;18.70;99.90
15707;DHT22;7953;54.302;10.128;2023-05-07T17:04:50;18.50;99.90
15707;DHT22;7953;54.302;10.128;2023-05-07T17:07:17;18.20;99.90
15707;DHT22;7953;54.302;10.128;2023-05-07T17:09:44;18.10;99.90
15707;DHT22;7953;54.302;10.128;2023-05-07T17:12:11;18.00;99.90
15707;DHT22;7953;54.302;10.128;2023-05-07T17:14:39;17.90;99.90
15707;DHT22;7953;54.302;10.128;2023-05-07T17:17:06;17.90;99.90
15707;DHT22;7953;54.302;10.128;2023-05-07T17:19:34;17.90;99.90
15707;DHT22;7953;54.302;10.128;2023-05-07T17:22:02;17.80;99.90
15707;DHT22;7953;54.302;10.128;2023-05-07T17:24:29;17.70;99.90
15707;DHT22;7953;54.302;10.128;2023-05-07T17:26:56;17.50;99.90
15707;DHT22;7953;54.302;10.128;2023-05-07T17:29:23;17.50;99.90
15707;DHT22;7953;54.302;10.128;2023-05-07T17:31:52;17.40;99.90
15707;DHT22;7953;54.302;10.128;2023-05-07T17:34:18;17.30;99.90
15707;DHT22;7953;54.302;10.128;2023-05-07T17:36:45;17.20;99.90
15707;DHT22;7953;54.302;10.128;2023-05-07T17:39:12;17.10;99.90
15707;DHT22;7953;54.302;10.128;2023-05-07T17:41:39;17.00;99.90
15707;DHT22;7953;54.302;10.128;2023-05-07T17:44:06;16.80;99.90
15707;DHT22;7953;54.302;10.128;2023-05-07T17:46:33;16.60;99.90
15707;DHT22;7953;54.302;10.128;2023-05-07T17:49:01;16.50;99.90
15707;DHT22;7953;54.302;10.128;2023-05-07T17:51:28;16.30;99.90
15707;DHT22;7953;54.302;10.128;2023-05-07T17:53:55;16.10;99.90
15707;DHT22;7953;54.302;10.128;2023-05-07T17:56:22;15.90;99.90
15707;DHT22;7953;54.302;10.128;2023-05-07T17:58:49;15.80;99.90
15707;DHT22;7953;54.302;10.128;2023-05-07T18:01:15;15.70;99.90
15707;DHT22;7953;54.302;10.128;2023-05-07T18:03:42;15.60;99.90
15707;DHT22;7953;54.302;10.128;2023-05-07T18:06:11;15.40;99.90
15707;DHT22;7953;54.302;10.128;2023-05-07T18:08:42;15.30;99.90
15707;DHT22;7953;54.302;10.128;2023-05-07T18:11:09;15.20;99.90
15707;DHT22;7953;54.302;10.128;2023-05-07T18:13:36;15.10;99.90
15707;DHT22;7953;54.302;10.128;2023-05-07T18:16:03;15.00;99.90
15707;DHT22;7953;54.302;10.128;2023-05-07T18:18:30;14.90;99.90